sensor_id;sensor_type;location;lat;lon;timestamp;pressure;altitude;pressure_sealevel;temperature;humidity
53546;BME280;39432;51.902;10.844;2023-02-15T00:01:08;100980.84;;;1.75;100.00
53546;BME280;39432;51.902;10.844;2023-02-15T00:03:38;100991.63;;;1.59;100.00
53546;BME280;39432;51.902;10.844;2023-02-15T00:06:07;100982.94;;;2.06;100.00
53546;BME280;39432;51.902;10.844;2023-02-15T00:08:37;100988.97;;;2.65;100.00
53546;BME280;39432;51.902;10.844;2023-02-15T00:11:07;100975.16;;;2.27;100.00
53546;BME280;39432;51.902;10.844;2023-02-15T00:13:37;100974.28;;;2.51;100.00
53546;BME280;39432;51.902;10.844;2023-02-15T00:16:12;100979.53;;;2.53;100.00
53546;BME280;39432;51.902;10.844;2023-02-15T00:18:42;100973.81;;;2.48;100.00
53546;BME280;39432;51.902;10.844;2023-02-15T00:21:12;100966.41;;;2.01;100.00
53546;BME280;39432;51.902;10.844;2023-02-15T00:23:41;100973.47;;;2.18;100.00
53546;BME280;39432;51.902;10.844;2023-02-15T00:26:11;100965.47;;;1.43;100.00
53546;BME280;39432;51.902;10.844;2023-02-15T00:28:42;100973.97;;;2.30;100.00
53546;BME280;39432;51.902;10.844;2023-02-15T00:31:14;100968.19;;;1.09;100.00
53546;BME280;39432;51.902;10.844;2023-02-15T00:33:44;100971.81;;;1.26;100.00
53546;BME280;39432;51.902;10.844;2023-02-15T00:36:14;100974.34;;;1.27;100.00
53546;BME280;39432;51.902;10.844;2023-02-15T00:38:43;100971.91;;;1.08;100.00
53546;BME280;39432;51.902;10.844;2023-02-15T00:41:13;100976.03;;;1.28;100.00
53546;BME280;39432;51.902;10.844;2023-02-15T00:43:42;100975.91;;;1.46;100.00
53546;BME280;39432;51.902;10.844;2023-02-15T00:46:14;100981.56;;;2.02;100.00
53546;BME280;39432;51.902;10.844;2023-02-15T00:48:44;100977.69;;;2.29;100.00
53546;BME280;39432;51.902;10.844;2023-02-15T00:51:14;100975.78;;;2.62;100.00
53546;BME280;39432;51.902;10.844;2023-02-15T00:53:43;100964.69;;;1.92;100.00
53546;BME280;39432;51.902;10.844;2023-02-15T00:56:13;100959.97;;;2.18;100.00
53546;BME280;39432;51.902;10.844;2023-02-15T00:58:43;100953.94;;;2.88;100.00
53546;BME280;39432;51.902;10.844;2023-02-15T01:01:18;100956.59;;;2.49;100.00
53546;BME280;39432;51.902;10.844;2023-02-15T01:03:50;100948.84;;;2.21;100.00
53546;BME280;39432;51.902;10.844;2023-02-15T01:06:20;100943.78;;;2.18;100.00
53546;BME280;39432;51.902;10.844;2023-02-15T01:08:50;100943.28;;;2.31;100.00
53546;BME280;39432;51.902;10.844;2023-02-15T01:11:22;100939.03;;;2.45;100.00
53546;BME280;39432;51.902;10.844;2023-02-15T01:13:54;100924.13;;;2.57;100.00
53546;BME280;39432;51.902;10.844;2023-02-15T01:16:28;100920.44;;;2.50;100.00
53546;BME280;39432;51.902;10.844;2023-02-15T01:18:58;100910.91;;;2.78;100.00
53546;BME280;39432;51.902;10.844;2023-02-15T01:21:30;100905.47;;;2.31;100.00
53546;BME280;39432;51.902;10.844;2023-02-15T01:24:02;100915.75;;;2.27;100.00
53546;BME280;39432;51.902;10.844;2023-02-15T01:26:32;100911.72;;;2.31;100.00
53546;BME280;39432;51.902;10.844;2023-02-15T01:29:02;100909.44;;;2.59;100.00
53546;BME280;39432;51.902;10.844;2023-02-15T01:31:34;100899.56;;;2.27;100.00
53546;BME280;39432;51.902;10.844;2023-02-15T01:34:06;100901.84;;;1.00;100.00
53546;BME280;39432;51.902;10.844;2023-02-15T01:36:37;100896.50;;;0.40;100.00
53546;BME280;39432;51.902;10.844;2023-02-15T01:39:07;100900.47;;;0.28;100.00
53546;BME280;39432;51.902;10.844;2023-02-15T01:41:37;100900.50;;;0.36;100.00
53546;BME280;39432;51.902;10.844;2023-02-15T01:47:10;100902.81;;;0.99;100.00
53546;BME280;39432;51.902;10.844;2023-02-15T01:49:42;100899.59;;;1.78;100.00
53546;BME280;39432;51.902;10.844;2023-02-15T01:52:15;100891.09;;;2.38;100.00
53546;BME280;39432;51.902;10.844;2023-02-15T01:54:47;100887.34;;;2.56;100.00
53546;BME280;39432;51.902;10.844;2023-02-15T01:57:19;100882.66;;;1.11;100.00
53546;BME280;39432;51.902;10.844;2023-02-15T01:59:55;100883.72;;;2.08;100.00
53546;BME280;39432;51.902;10.844;2023-02-15T02:02:28;100879.22;;;2.56;100.00
53546;BME280;39432;51.902;10.844;2023-02-15T02:05:00;100871.00;;;2.49;100.00
53546;BME280;39432;51.902;10.844;2023-02-15T02:07:35;100864.88;;;2.95;100.00
53546;BME280;39432;51.902;10.844;2023-02-15T02:10:07;100862.41;;;3.16;100.00
53546;BME280;39432;51.902;10.844;2023-02-15T02:12:38;100852.13;;;3.11;100.00
53546;BME280;39432;51.902;10.844;2023-02-15T02:15:10;100849.63;;;3.02;100.00
53546;BME280;39432;51.902;10.844;2023-02-15T02:17:51;100849.69;;;2.94;100.00
53546;BME280;39432;51.902;10.844;2023-02-15T02:20:36;100835.69;;;2.51;100.00
53546;BME280;39432;51.902;10.844;2023-02-15T02:23:32;100836.88;;;1.52;100.00
53546;BME280;39432;51.902;10.844;2023-02-15T02:26:38;100836.34;;;2.61;100.00
53546;BME280;39432;51.902;10.844;2023-02-15T02:29:37;100826.28;;;2.78;100.00
53546;BME280;39432;51.902;10.844;2023-02-15T02:35:14;100819.63;;;2.02;100.00
53546;BME280;39432;51.902;10.844;2023-02-15T02:37:52;100827.66;;;2.34;100.00
53546;BME280;39432;51.902;10.844;2023-02-15T02:40:33;100820.84;;;1.91;100.00
53546;BME280;39432;51.902;10.844;2023-02-15T02:43:11;100831.13;;;1.14;100.00
53546;BME280;39432;51.902;10.844;2023-02-15T02:45:46;100826.09;;;1.27;100.00
53546;BME280;39432;51.902;10.844;2023-02-15T02:48:21;100830.47;;;1.37;100.00
53546;BME280;39432;51.902;10.844;2023-02-15T02:50:54;100830.75;;;1.01;100.00
53546;BME280;39432;51.902;10.844;2023-02-15T02:53:25;100828.47;;;0.64;100.00
53546;BME280;39432;51.902;10.844;2023-02-15T02:55:56;100823.53;;;-0.35;100.00
53546;BME280;39432;51.902;10.844;2023-02-15T02:58:31;100831.78;;;0.15;100.00
53546;BME280;39432;51.902;10.844;2023-02-15T03:01:06;100834.75;;;-0.40;100.00
53546;BME280;39432;51.902;10.844;2023-02-15T03:03:41;100823.38;;;0.18;100.00
53546;BME280;39432;51.902;10.844;2023-02-15T03:06:18;100842.25;;;1.11;100.00
53546;BME280;39432;51.902;10.844;2023-02-15T03:08:52;100836.38;;;0.65;100.00
53546;BME280;39432;51.902;10.844;2023-02-15T03:11:24;100846.84;;;1.60;100.00
53546;BME280;39432;51.902;10.844;2023-02-15T03:13:54;100841.59;;;1.99;100.00
53546;BME280;39432;51.902;10.844;2023-02-15T03:16:24;100829.16;;;1.49;100.00
53546;BME280;39432;51.902;10.844;2023-02-15T03:18:58;100828.63;;;1.45;100.00
53546;BME280;39432;51.902;10.844;2023-02-15T03:21:36;100828.97;;;1.34;100.00
53546;BME280;39432;51.902;10.844;2023-02-15T03:24:10;100827.94;;;1.19;100.00
53546;BME280;39432;51.902;10.844;2023-02-15T03:26:45;100827.94;;;1.27;100.00
53546;BME280;39432;51.902;10.844;2023-02-15T03:29:16;100824.75;;;1.40;100.00
53546;BME280;39432;51.902;10.844;2023-02-15T03:31:54;100830.16;;;1.72;100.00
53546;BME280;39432;51.902;10.844;2023-02-15T03:34:25;100816.84;;;1.71;100.00
53546;BME280;39432;51.902;10.844;2023-02-15T03:37:03;100812.28;;;1.39;100.00
53546;BME280;39432;51.902;10.844;2023-02-15T03:39:39;100805.19;;;1.62;100.00
53546;BME280;39432;51.902;10.844;2023-02-15T03:42:14;100814.38;;;0.86;100.00
53546;BME280;39432;51.902;10.844;2023-02-15T03:44:51;100807.91;;;1.54;100.00
53546;BME280;39432;51.902;10.844;2023-02-15T03:47:26;100789.03;;;1.21;100.00
53546;BME280;39432;51.902;10.844;2023-02-15T03:50:00;100785.44;;;0.96;100.00
53546;BME280;39432;51.902;10.844;2023-02-15T03:52:33;100790.19;;;0.02;100.00
53546;BME280;39432;51.902;10.844;2023-02-15T03:55:02;100794.66;;;0.27;100.00
53546;BME280;39432;51.902;10.844;2023-02-15T03:57:35;100796.59;;;1.34;100.00
53546;BME280;39432;51.902;10.844;2023-02-15T04:00:21;100795.06;;;1.31;100.00
53546;BME280;39432;51.902;10.844;2023-02-15T04:03:22;100789.88;;;0.47;100.00
53546;BME280;39432;51.902;10.844;2023-02-15T04:05:56;100792.22;;;1.33;100.00
53546;BME280;39432;51.902;10.844;2023-02-15T04:08:29;100790.72;;;1.22;100.00
53546;BME280;39432;51.902;10.844;2023-02-15T04:11:11;100779.59;;;1.34;100.00
53546;BME280;39432;51.902;10.844;2023-02-15T04:13:40;100767.09;;;0.84;100.00
53546;BME280;39432;51.902;10.844;2023-02-15T04:16:10;100772.19;;;1.27;100.00
53546;BME280;39432;51.902;10.844;2023-02-15T04:18:39;100776.75;;;0.52;100.00
53546;BME280;39432;51.902;10.844;2023-02-15T04:21:24;100772.44;;;0.75;100.00
53546;BME280;39432;51.902;10.844;2023-02-15T04:24:09;100774.28;;;0.75;100.00
53546;BME280;39432;51.902;10.844;2023-02-15T04:26:51;100765.06;;;0.27;100.00
53546;BME280;39432;51.902;10.844;2023-02-15T04:29:23;100768.03;;;0.50;100.00
53546;BME280;39432;51.902;10.844;2023-02-15T04:31:54;100771.31;;;1.35;100.00
53546;BME280;39432;51.902;10.844;2023-02-15T04:34:25;100772.19;;;1.44;100.00
53546;BME280;39432;51.902;10.844;2023-02-15T04:36:55;100759.56;;;2.16;100.00
53546;BME280;39432;51.902;10.844;2023-02-15T04:39:27;100754.59;;;1.72;100.00
53546;BME280;39432;51.902;10.844;2023-02-15T04:41:57;100744.88;;;1.14;100.00
53546;BME280;39432;51.902;10.844;2023-02-15T04:44:26;100738.81;;;1.20;100.00
53546;BME280;39432;51.902;10.844;2023-02-15T04:46:56;100736.72;;;1.88;100.00
53546;BME280;39432;51.902;10.844;2023-02-15T04:49:26;100738.81;;;1.20;100.00
53546;BME280;39432;51.902;10.844;2023-02-15T04:51:55;100734.72;;;1.73;100.00
53546;BME280;39432;51.902;10.844;2023-02-15T04:54:27;100735.88;;;2.26;100.00
53546;BME280;39432;51.902;10.844;2023-02-15T04:56:57;100721.34;;;1.88;100.00
53546;BME280;39432;51.902;10.844;2023-02-15T04:59:27;100722.63;;;1.04;100.00
53546;BME280;39432;51.902;10.844;2023-02-15T05:01:56;100716.59;;;1.18;100.00
53546;BME280;39432;51.902;10.844;2023-02-15T05:04:26;100722.72;;;2.31;100.00
53546;BME280;39432;51.902;10.844;2023-02-15T05:06:56;100716.63;;;2.29;100.00
53546;BME280;39432;51.902;10.844;2023-02-15T05:09:28;100715.88;;;2.98;100.00
53546;BME280;39432;51.902;10.844;2023-02-15T05:11:58;100705.13;;;2.35;100.00
53546;BME280;39432;51.902;10.844;2023-02-15T05:14:27;100707.81;;;1.41;100.00
53546;BME280;39432;51.902;10.844;2023-02-15T05:16:57;100705.25;;;1.47;100.00
53546;BME280;39432;51.902;10.844;2023-02-15T05:19:28;100705.91;;;2.13;100.00
53546;BME280;39432;51.902;10.844;2023-02-15T05:21:58;100699.41;;;2.30;100.00
53546;BME280;39432;51.902;10.844;2023-02-15T05:24:31;100705.88;;;2.21;100.00
53546;BME280;39432;51.902;10.844;2023-02-15T05:27:13;100701.31;;;2.22;100.00
53546;BME280;39432;51.902;10.844;2023-02-15T05:29:55;100697.53;;;1.03;100.00
53546;BME280;39432;51.902;10.844;2023-02-15T05:32:25;100701.53;;;0.42;100.00
53546;BME280;39432;51.902;10.844;2023-02-15T05:34:54;100705.13;;;0.67;100.00
53546;BME280;39432;51.902;10.844;2023-02-15T05:37:24;100708.16;;;1.38;100.00
53546;BME280;39432;51.902;10.844;2023-02-15T05:39:56;100705.22;;;1.72;100.00
53546;BME280;39432;51.902;10.844;2023-02-15T05:42:25;100700.94;;;1.85;100.00
53546;BME280;39432;51.902;10.844;2023-02-15T05:44:55;100707.94;;;1.47;100.00
53546;BME280;39432;51.902;10.844;2023-02-15T05:47:25;100704.31;;;1.16;100.00
53546;BME280;39432;51.902;10.844;2023-02-15T05:49:54;100705.44;;;0.64;100.00
53546;BME280;39432;51.902;10.844;2023-02-15T05:52:24;100705.81;;;1.10;100.00
53546;BME280;39432;51.902;10.844;2023-02-15T05:54:56;100709.53;;;1.01;100.00
53546;BME280;39432;51.902;10.844;2023-02-15T05:57:27;100699.72;;;1.41;100.00
53546;BME280;39432;51.902;10.844;2023-02-15T05:59:56;100708.50;;;1.02;100.00
53546;BME280;39432;51.902;10.844;2023-02-15T06:02:26;100701.44;;;1.17;100.00
53546;BME280;39432;51.902;10.844;2023-02-15T06:04:56;100708.50;;;0.86;100.00
53546;BME280;39432;51.902;10.844;2023-02-15T06:07:25;100705.81;;;0.86;100.00
53546;BME280;39432;51.902;10.844;2023-02-15T06:09:57;100699.13;;;0.31;100.00
53546;BME280;39432;51.902;10.844;2023-02-15T06:12:27;100701.59;;;0.16;100.00
53546;BME280;39432;51.902;10.844;2023-02-15T06:14:57;100707.38;;;0.30;100.00
53546;BME280;39432;51.902;10.844;2023-02-15T06:17:26;100711.75;;;0.31;100.00
53546;BME280;39432;51.902;10.844;2023-02-15T06:19:56;100716.00;;;0.41;100.00
53546;BME280;39432;51.902;10.844;2023-02-15T06:22:26;100702.91;;;-0.04;100.00
53546;BME280;39432;51.902;10.844;2023-02-15T06:24:58;100711.44;;;-0.43;100.00
53546;BME280;39432;51.902;10.844;2023-02-15T06:27:27;100712.47;;;-0.36;100.00
53546;BME280;39432;51.902;10.844;2023-02-15T06:29:57;100714.16;;;-0.35;100.00
53546;BME280;39432;51.902;10.844;2023-02-15T06:32:27;100712.03;;;-0.23;100.00
53546;BME280;39432;51.902;10.844;2023-02-15T06:34:57;100717.19;;;-0.04;100.00
53546;BME280;39432;51.902;10.844;2023-02-15T06:37:27;100730.97;;;0.44;100.00
53546;BME280;39432;51.902;10.844;2023-02-15T06:39:59;100726.53;;;0.18;100.00
53546;BME280;39432;51.902;10.844;2023-02-15T06:42:30;100735.00;;;0.40;100.00
53546;BME280;39432;51.902;10.844;2023-02-15T06:45:00;100729.75;;;1.05;100.00
53546;BME280;39432;51.902;10.844;2023-02-15T06:47:30;100734.88;;;1.64;100.00
53546;BME280;39432;51.902;10.844;2023-02-15T06:49:59;100720.28;;;1.25;100.00
53546;BME280;39432;51.902;10.844;2023-02-15T06:52:29;100719.91;;;1.61;100.00
53546;BME280;39432;51.902;10.844;2023-02-15T06:55:01;100711.97;;;2.15;100.00
53546;BME280;39432;51.902;10.844;2023-02-15T06:57:31;100704.34;;;1.88;100.00
53546;BME280;39432;51.902;10.844;2023-02-15T07:00:01;100701.00;;;1.69;100.00
53546;BME280;39432;51.902;10.844;2023-02-15T07:02:32;100696.50;;;1.37;100.00
53546;BME280;39432;51.902;10.844;2023-02-15T07:05:02;100688.59;;;1.36;100.00
53546;BME280;39432;51.902;10.844;2023-02-15T07:07:32;100694.69;;;1.29;100.00
53546;BME280;39432;51.902;10.844;2023-02-15T07:10:05;100694.38;;;1.00;100.00
53546;BME280;39432;51.902;10.844;2023-02-15T07:12:35;100687.94;;;1.25;100.00
53546;BME280;39432;51.902;10.844;2023-02-15T07:15:10;100690.25;;;1.53;100.00
53546;BME280;39432;51.902;10.844;2023-02-15T07:17:40;100681.34;;;3.08;100.00
53546;BME280;39432;51.902;10.844;2023-02-15T07:20:12;100675.88;;;2.08;100.00
53546;BME280;39432;51.902;10.844;2023-02-15T07:22:43;100672.41;;;2.30;100.00
53546;BME280;39432;51.902;10.844;2023-02-15T07:25:16;100661.38;;;2.63;100.00
53546;BME280;39432;51.902;10.844;2023-02-15T07:27:46;100660.63;;;2.77;100.00
53546;BME280;39432;51.902;10.844;2023-02-15T07:30:16;100658.97;;;2.45;100.00
53546;BME280;39432;51.902;10.844;2023-02-15T07:32:46;100652.00;;;2.59;100.00
53546;BME280;39432;51.902;10.844;2023-02-15T07:35:31;100649.44;;;3.18;100.00
53546;BME280;39432;51.902;10.844;2023-02-15T07:38:01;100658.66;;;3.76;100.00
53546;BME280;39432;51.902;10.844;2023-02-15T07:40:33;100651.69;;;3.29;100.00
53546;BME280;39432;51.902;10.844;2023-02-15T07:43:02;100643.31;;;3.24;100.00
53546;BME280;39432;51.902;10.844;2023-02-15T07:45:32;100649.25;;;4.23;100.00
53546;BME280;39432;51.902;10.844;2023-02-15T07:48:02;100642.75;;;4.03;100.00
53546;BME280;39432;51.902;10.844;2023-02-15T07:50:32;100626.44;;;4.75;100.00
53546;BME280;39432;51.902;10.844;2023-02-15T07:53:02;100624.19;;;4.57;100.00
53546;BME280;39432;51.902;10.844;2023-02-15T07:55:34;100623.75;;;4.17;100.00
53546;BME280;39432;51.902;10.844;2023-02-15T07:58:04;100619.72;;;4.92;100.00
53546;BME280;39432;51.902;10.844;2023-02-15T08:00:34;100628.88;;;3.91;100.00
53546;BME280;39432;51.902;10.844;2023-02-15T08:03:23;100624.75;;;4.31;100.00
53546;BME280;39432;51.902;10.844;2023-02-15T08:05:56;100623.38;;;4.57;100.00
53546;BME280;39432;51.902;10.844;2023-02-15T08:08:27;100619.47;;;4.66;100.00
53546;BME280;39432;51.902;10.844;2023-02-15T08:11:04;100611.56;;;4.07;100.00
53546;BME280;39432;51.902;10.844;2023-02-15T08:13:53;100620.81;;;3.97;100.00
53546;BME280;39432;51.902;10.844;2023-02-15T08:16:28;100619.47;;;4.44;100.00
53546;BME280;39432;51.902;10.844;2023-02-15T08:19:00;100621.13;;;4.24;100.00
53546;BME280;39432;51.902;10.844;2023-02-15T08:21:30;100626.81;;;4.29;100.00
53546;BME280;39432;51.902;10.844;2023-02-15T08:24:00;100624.81;;;5.65;100.00
53546;BME280;39432;51.902;10.844;2023-02-15T08:26:33;100615.59;;;5.24;100.00
53546;BME280;39432;51.902;10.844;2023-02-15T08:29:06;100612.94;;;4.82;100.00
53546;BME280;39432;51.902;10.844;2023-02-15T08:31:36;100612.72;;;6.08;100.00
53546;BME280;39432;51.902;10.844;2023-02-15T08:34:08;100614.97;;;5.98;100.00
53546;BME280;39432;51.902;10.844;2023-02-15T08:36:38;100611.25;;;5.99;100.00
53546;BME280;39432;51.902;10.844;2023-02-15T08:39:07;100599.66;;;6.39;100.00
53546;BME280;39432;51.902;10.844;2023-02-15T08:41:42;100591.50;;;6.32;100.00
53546;BME280;39432;51.902;10.844;2023-02-15T08:44:14;100589.03;;;6.57;100.00
53546;BME280;39432;51.902;10.844;2023-02-15T08:46:45;100584.16;;;6.26;100.00
53546;BME280;39432;51.902;10.844;2023-02-15T08:49:17;100588.25;;;6.02;100.00
53546;BME280;39432;51.902;10.844;2023-02-15T08:51:48;100588.66;;;6.93;100.00
53546;BME280;39432;51.902;10.844;2023-02-15T08:54:20;100587.34;;;7.42;100.00
53546;BME280;39432;51.902;10.844;2023-02-15T08:56:52;100582.31;;;7.39;100.00
53546;BME280;39432;51.902;10.844;2023-02-15T08:59:22;100582.47;;;7.51;100.00
53546;BME280;39432;51.902;10.844;2023-02-15T09:01:54;100577.53;;;6.95;100.00
53546;BME280;39432;51.902;10.844;2023-02-15T09:04:23;100572.66;;;6.37;100.00
53546;BME280;39432;51.902;10.844;2023-02-15T09:06:53;100571.06;;;7.09;100.00
53546;BME280;39432;51.902;10.844;2023-02-15T09:09:23;100568.00;;;7.57;100.00
53546;BME280;39432;51.902;10.844;2023-02-15T09:11:55;100565.59;;;6.63;100.00
53546;BME280;39432;51.902;10.844;2023-02-15T09:14:25;100566.84;;;7.20;100.00
53546;BME280;39432;51.902;10.844;2023-02-15T09:16:55;100566.03;;;6.99;100.00
53546;BME280;39432;51.902;10.844;2023-02-15T09:19:25;100559.31;;;7.02;100.00
53546;BME280;39432;51.902;10.844;2023-02-15T09:21:54;100554.69;;;7.22;100.00
53546;BME280;39432;51.902;10.844;2023-02-15T09:24:25;100551.31;;;7.40;100.00
53546;BME280;39432;51.902;10.844;2023-02-15T09:26:57;100552.56;;;7.44;100.00
53546;BME280;39432;51.902;10.844;2023-02-15T09:29:27;100554.03;;;7.98;100.00
53546;BME280;39432;51.902;10.844;2023-02-15T09:31:56;100543.31;;;8.35;100.00
53546;BME280;39432;51.902;10.844;2023-02-15T09:34:26;100550.59;;;8.79;100.00
53546;BME280;39432;51.902;10.844;2023-02-15T09:37:00;100547.94;;;8.34;100.00
53546;BME280;39432;51.902;10.844;2023-02-15T09:39:30;100545.66;;;7.93;99.19
53546;BME280;39432;51.902;10.844;2023-02-15T09:42:33;100545.09;;;8.86;99.65
53546;BME280;39432;51.902;10.844;2023-02-15T09:45:26;100550.72;;;8.91;95.37
53546;BME280;39432;51.902;10.844;2023-02-15T09:48:19;100559.94;;;8.65;98.09
53546;BME280;39432;51.902;10.844;2023-02-15T09:51:00;100551.34;;;9.11;96.79
53546;BME280;39432;51.902;10.844;2023-02-15T09:53:47;100553.91;;;8.56;97.49
53546;BME280;39432;51.902;10.844;2023-02-15T09:56:30;100551.00;;;8.19;100.00
53546;BME280;39432;51.902;10.844;2023-02-15T09:59:11;100552.91;;;7.68;100.00
53546;BME280;39432;51.902;10.844;2023-02-15T10:01:55;100550.25;;;7.99;100.00
53546;BME280;39432;51.902;10.844;2023-02-15T10:04:38;100552.78;;;8.39;100.00
53546;BME280;39432;51.902;10.844;2023-02-15T10:07:21;100544.09;;;8.49;100.00
53546;BME280;39432;51.902;10.844;2023-02-15T10:10:13;100543.38;;;9.10;100.00
53546;BME280;39432;51.902;10.844;2023-02-15T10:12:59;100535.34;;;8.96;100.00
53546;BME280;39432;51.902;10.844;2023-02-15T10:15:53;100539.09;;;9.20;100.00
53546;BME280;39432;51.902;10.844;2023-02-15T10:18:46;100538.19;;;9.27;100.00
53546;BME280;39432;51.902;10.844;2023-02-15T10:21:29;100532.50;;;9.65;100.00
53546;BME280;39432;51.902;10.844;2023-02-15T10:24:23;100533.59;;;9.94;100.00
53546;BME280;39432;51.902;10.844;2023-02-15T10:27:04;100535.91;;;9.60;100.00
53546;BME280;39432;51.902;10.844;2023-02-15T10:29:37;100525.03;;;10.20;100.00
53546;BME280;39432;51.902;10.844;2023-02-15T10:32:19;100530.16;;;9.68;100.00
53546;BME280;39432;51.902;10.844;2023-02-15T10:34:58;100515.22;;;10.85;100.00
53546;BME280;39432;51.902;10.844;2023-02-15T10:37:44;100505.41;;;10.65;96.67
53546;BME280;39432;51.902;10.844;2023-02-15T10:40:23;100513.25;;;10.20;97.62
53546;BME280;39432;51.902;10.844;2023-02-15T10:43:13;100503.78;;;10.76;100.00
53546;BME280;39432;51.902;10.844;2023-02-15T10:45:52;100510.19;;;9.68;100.00
53546;BME280;39432;51.902;10.844;2023-02-15T10:48:48;100499.91;;;10.42;100.00
53546;BME280;39432;51.902;10.844;2023-02-15T10:51:31;100504.94;;;9.85;100.00
53546;BME280;39432;51.902;10.844;2023-02-15T10:54:11;100512.59;;;9.76;100.00
53546;BME280;39432;51.902;10.844;2023-02-15T10:56:50;100498.06;;;10.77;100.00
53546;BME280;39432;51.902;10.844;2023-02-15T10:59:38;100501.09;;;10.16;100.00
53546;BME280;39432;51.902;10.844;2023-02-15T11:02:18;100509.91;;;9.88;100.00
53546;BME280;39432;51.902;10.844;2023-02-15T11:05:02;100492.38;;;10.25;100.00
53546;BME280;39432;51.902;10.844;2023-02-15T11:07:40;100491.16;;;10.87;100.00
53546;BME280;39432;51.902;10.844;2023-02-15T11:10:22;100490.81;;;11.18;100.00
53546;BME280;39432;51.902;10.844;2023-02-15T11:12:54;100486.94;;;10.37;100.00
53546;BME280;39432;51.902;10.844;2023-02-15T11:15:30;100484.47;;;10.59;100.00
53546;BME280;39432;51.902;10.844;2023-02-15T11:18:06;100478.53;;;11.09;100.00
53546;BME280;39432;51.902;10.844;2023-02-15T11:20:45;100478.91;;;10.77;100.00
53546;BME280;39432;51.902;10.844;2023-02-15T11:23:17;100476.88;;;10.85;100.00
53546;BME280;39432;51.902;10.844;2023-02-15T11:25:53;100472.38;;;10.78;100.00
53546;BME280;39432;51.902;10.844;2023-02-15T11:28:30;100467.22;;;10.70;100.00
53546;BME280;39432;51.902;10.844;2023-02-15T11:31:15;100462.72;;;11.11;100.00
53546;BME280;39432;51.902;10.844;2023-02-15T11:33:50;100462.09;;;11.09;95.99
53546;BME280;39432;51.902;10.844;2023-02-15T11:36:26;100458.19;;;11.17;94.92
53546;BME280;39432;51.902;10.844;2023-02-15T11:39:01;100458.69;;;10.78;95.61
53546;BME280;39432;51.902;10.844;2023-02-15T11:41:36;100460.59;;;10.78;97.33
53546;BME280;39432;51.902;10.844;2023-02-15T11:44:10;100464.72;;;10.34;93.53
53546;BME280;39432;51.902;10.844;2023-02-15T11:46:42;100456.78;;;10.55;91.03
53546;BME280;39432;51.902;10.844;2023-02-15T11:49:21;100443.19;;;10.96;89.80
53546;BME280;39432;51.902;10.844;2023-02-15T11:51:55;100457.34;;;10.69;95.14
53546;BME280;39432;51.902;10.844;2023-02-15T11:54:28;100439.97;;;10.52;97.88
53546;BME280;39432;51.902;10.844;2023-02-15T11:57:02;100436.66;;;10.73;100.00
53546;BME280;39432;51.902;10.844;2023-02-15T11:59:36;100440.81;;;10.76;100.00
53546;BME280;39432;51.902;10.844;2023-02-15T12:02:16;100443.78;;;10.98;100.00
53546;BME280;39432;51.902;10.844;2023-02-15T12:04:49;100444.22;;;11.18;97.99
53546;BME280;39432;51.902;10.844;2023-02-15T12:07:25;100446.72;;;12.00;95.91
53546;BME280;39432;51.902;10.844;2023-02-15T12:10:00;100444.72;;;11.96;91.85
53546;BME280;39432;51.902;10.844;2023-02-15T12:12:35;100433.63;;;11.62;92.40
53546;BME280;39432;51.902;10.844;2023-02-15T12:15:06;100426.25;;;11.91;91.92
53546;BME280;39432;51.902;10.844;2023-02-15T12:17:39;100424.66;;;12.40;90.48
53546;BME280;39432;51.902;10.844;2023-02-15T12:20:22;100434.47;;;12.36;90.85
53546;BME280;39432;51.902;10.844;2023-02-15T12:23:00;100433.38;;;12.04;90.56
53546;BME280;39432;51.902;10.844;2023-02-15T12:25:36;100428.63;;;12.16;91.33
53546;BME280;39432;51.902;10.844;2023-02-15T12:28:23;100420.16;;;12.68;91.88
53546;BME280;39432;51.902;10.844;2023-02-15T12:30:54;100432.22;;;12.50;93.00
53546;BME280;39432;51.902;10.844;2023-02-15T12:33:28;100422.09;;;12.89;95.42
53546;BME280;39432;51.902;10.844;2023-02-15T12:36:01;100432.75;;;11.73;98.38
53546;BME280;39432;51.902;10.844;2023-02-15T12:38:36;100429.81;;;12.71;100.00
53546;BME280;39432;51.902;10.844;2023-02-15T12:41:23;100421.38;;;13.16;97.54
53546;BME280;39432;51.902;10.844;2023-02-15T12:44:04;100418.16;;;12.47;100.00
53546;BME280;39432;51.902;10.844;2023-02-15T12:46:40;100427.09;;;11.92;100.00
53546;BME280;39432;51.902;10.844;2023-02-15T12:49:17;100430.47;;;12.27;100.00
53546;BME280;39432;51.902;10.844;2023-02-15T12:51:49;100425.00;;;12.27;100.00
53546;BME280;39432;51.902;10.844;2023-02-15T12:54:32;100434.13;;;12.50;100.00
53546;BME280;39432;51.902;10.844;2023-02-15T12:57:20;100438.56;;;11.89;100.00
53546;BME280;39432;51.902;10.844;2023-02-15T12:59:53;100439.19;;;11.39;100.00
53546;BME280;39432;51.902;10.844;2023-02-15T13:02:26;100444.94;;;11.25;100.00
53546;BME280;39432;51.902;10.844;2023-02-15T13:04:57;100434.63;;;11.56;100.00
53546;BME280;39432;51.902;10.844;2023-02-15T13:07:33;100423.91;;;11.43;100.00
53546;BME280;39432;51.902;10.844;2023-02-15T13:10:20;100429.03;;;10.99;100.00
53546;BME280;39432;51.902;10.844;2023-02-15T13:12:51;100432.72;;;10.93;100.00
53546;BME280;39432;51.902;10.844;2023-02-15T13:15:30;100430.03;;;11.33;100.00
53546;BME280;39432;51.902;10.844;2023-02-15T13:18:01;100419.69;;;11.23;100.00
53546;BME280;39432;51.902;10.844;2023-02-15T13:20:36;100414.97;;;11.07;100.00